Time;durP1;ratioP1;P1;durP2;ratioP2;P2;SDS_P1;SDS_P2;PMS_P1;PMS_P2;Temp;Humidity;BMP_temperature;BMP_pressure;BME280_temperature;BME280_humidity;BME280_pressure;Samples;Min_cycle;Max_cycle;Signal;HPM_P1;HPM_P2
2021/01/12 00:01:58;;;;;;;7.70;6.00;;;;;;;17.03;28.07;94244.47;5034867;28;20482;-42
2021/01/12 00:04:27;;;;;;;8.43;6.07;;;;;;;17.11;28.05;94251.53;5035233;28;20048;-42
2021/01/12 00:06:54;;;;;;;7.75;5.70;;;;;;;17.06;27.81;94254.38;5020198;28;20062;-42
2021/01/12 00:09:24;;;;;;;8.82;5.80;;;;;;;17.01;28.04;94230.84;5014966;28;20068;-42
2021/01/12 00:11:54;;;;;;;7.22;5.85;;;;;;;17.19;27.53;94221.59;5027421;28;20053;-42
2021/01/12 00:14:31;;;;;;;8.27;5.60;;;;;;;17.30;27.49;94221.16;5034349;28;20052;-41
2021/01/12 00:17:04;;;;;;;7.82;5.80;;;;;;;17.40;27.29;94231.25;5032878;28;20061;-42
2021/01/12 00:19:35;;;;;;;7.10;5.47;;;;;;;17.20;27.24;94228.44;5034584;28;20060;-43
2021/01/12 00:22:08;;;;;;;7.53;5.95;;;;;;;16.95;28.05;94232.16;5034401;28;20057;-42
2021/01/12 00:24:37;;;;;;;7.13;5.80;;;;;;;17.17;27.73;94234.34;5034542;28;20050;-42
2021/01/12 00:27:05;;;;;;;6.55;5.35;;;;;;;17.04;27.58;94230.19;5034091;28;20064;-43
2021/01/12 00:29:33;;;;;;;8.05;5.50;;;;;;;17.18;27.59;94198.16;5034388;28;20053;-42
2021/01/12 00:32:02;;;;;;;6.93;5.90;;;;;;;17.00;27.83;94208.16;5034160;28;20352;-43
2021/01/12 00:34:31;;;;;;;6.78;5.40;;;;;;;16.96;27.80;94207.28;5022717;28;20365;-42
2021/01/12 00:36:58;;;;;;;8.82;6.00;;;;;;;17.13;27.54;94222.91;5028503;28;20053;-42
2021/01/12 00:39:26;;;;;;;7.82;5.95;;;;;;;17.10;27.92;94233.38;5034477;28;20112;-42
2021/01/12 00:41:57;;;;;;;8.30;6.22;;;;;;;16.90;28.21;94219.16;5032892;28;20080;-43
2021/01/12 00:44:25;;;;;;;7.57;5.40;;;;;;;17.06;28.29;94217.41;5034181;28;20053;-41
2021/01/12 00:47:02;;;;;;;8.07;6.25;;;;;;;16.99;27.92;94206.63;5033999;28;20056;-43
2021/01/12 00:49:29;;;;;;;7.93;6.40;;;;;;;17.02;28.06;94190.13;5034438;28;20044;-42
2021/01/12 00:51:57;;;;;;;8.90;6.43;;;;;;;17.07;27.96;94197.81;5034121;28;20064;-43
2021/01/12 00:54:25;;;;;;;7.30;6.03;;;;;;;17.05;27.92;94221.16;5034186;28;20053;-42
2021/01/12 00:56:53;;;;;;;8.88;6.32;;;;;;;16.91;28.34;94204.84;5034010;28;20368;-43
2021/01/12 00:59:20;;;;;;;7.82;6.13;;;;;;;17.09;28.28;94213.34;5034259;28;20076;-41
2021/01/12 01:01:48;;;;;;;8.50;6.38;;;;;;;16.96;28.07;94194.09;5034150;28;20053;-42
2021/01/12 01:04:22;;;;;;;7.85;5.80;;;;;;;16.89;28.25;94193.84;5034266;28;20045;-42
2021/01/12 01:06:52;;;;;;;8.43;5.75;;;;;;;17.24;27.68;94197.59;5034028;28;20057;-42
2021/01/12 01:09:22;;;;;;;8.05;6.18;;;;;;;17.03;28.27;94202.22;5033935;28;20056;-42
2021/01/12 01:11:50;;;;;;;9.02;5.97;;;;;;;17.07;28.04;94199.69;5033620;28;20069;-42
2021/01/12 01:14:19;;;;;;;10.52;7.10;;;;;;;16.96;28.31;94188.81;5033938;28;20494;-42
2021/01/12 01:16:49;;;;;;;10.70;7.30;;;;;;;16.97;28.37;94193.00;5033772;28;20057;-42
2021/01/12 01:19:17;;;;;;;9.30;7.40;;;;;;;17.02;28.19;94200.69;5033937;28;20041;-42
2021/01/12 01:21:51;;;;;;;11.07;7.07;;;;;;;16.90;28.49;94209.34;5033547;28;20064;-42
2021/01/12 01:24:18;;;;;;;9.65;6.75;;;;;;;16.74;28.68;94197.91;5034131;28;20054;-42
2021/01/12 01:26:45;;;;;;;9.07;6.68;;;;;;;16.82;28.62;94212.09;5033637;28;20045;-41
2021/01/12 01:29:12;;;;;;;9.43;7.05;;;;;;;16.77;28.60;94209.69;5032791;28;20045;-41
2021/01/12 01:31:44;;;;;;;10.30;6.95;;;;;;;16.80;28.72;94198.47;5033684;28;20056;-42
2021/01/12 01:34:11;;;;;;;11.47;7.13;;;;;;;16.76;28.44;94203.63;5033349;28;20066;-42
2021/01/12 01:36:38;;;;;;;7.05;5.90;;;;;;;16.93;28.08;94205.31;5033812;28;20288;-42
2021/01/12 01:39:06;;;;;;;8.57;6.22;;;;;;;16.74;28.66;94195.28;5033685;28;20045;-42
2021/01/12 01:41:33;;;;;;;8.68;6.55;;;;;;;16.87;28.42;94196.81;5033221;28;20061;-42
2021/01/12 01:44:00;;;;;;;8.82;6.07;;;;;;;17.22;28.03;94220.16;5033676;28;20049;-42
2021/01/12 01:46:27;;;;;;;6.97;5.43;;;;;;;16.99;28.23;94196.06;5033370;28;20375;-43
2021/01/12 01:48:55;;;;;;;6.10;5.03;;;;;;;16.89;28.61;94181.41;5033530;28;20049;-43
2021/01/12 01:51:22;;;;;;;7.35;4.95;;;;;;;16.71;28.66;94187.25;5034697;28;20057;-42
2021/01/12 01:53:50;;;;;;;8.13;5.35;;;;;;;16.85;28.71;94200.88;5033622;28;20060;-42
2021/01/12 01:56:17;;;;;;;6.95;5.40;;;;;;;16.80;28.42;94188.69;5033320;28;20053;-42
2021/01/12 01:58:44;;;;;;;7.97;5.43;;;;;;;16.95;28.23;94179.34;5033682;28;20387;-43
2021/01/12 02:01:12;;;;;;;7.60;5.28;;;;;;;16.85;28.47;94166.56;5033388;28;20052;-42
2021/01/12 02:03:55;;;;;;;7.15;5.32;;;;;;;16.83;28.39;94166.91;5032519;28;20045;-43
2021/01/12 02:06:36;;;;;;;7.80;5.80;;;;;;;16.91;28.32;94152.03;5033361;28;20061;-43
2021/01/12 02:09:09;;;;;;;9.75;5.95;;;;;;;17.19;27.99;94150.28;5033290;28;20053;-42
2021/01/12 02:11:40;;;;;;;8.00;5.68;;;;;;;16.91;28.36;94130.91;5032428;28;20379;-41
2021/01/12 02:14:14;;;;;;;8.98;5.85;;;;;;;16.90;28.49;94118.81;5032767;28;20056;-42
2021/01/12 02:16:41;;;;;;;8.32;5.45;;;;;;;16.94;28.35;94133.69;5033110;28;20813;-41
2021/01/12 02:19:13;;;;;;;9.90;5.95;;;;;;;17.00;28.48;94128.94;5032459;28;20368;-43
2021/01/12 02:21:49;;;;;;;9.00;5.50;;;;;;;16.76;28.77;94115.75;5032160;28;20056;-42
2021/01/12 02:24:20;;;;;;;9.75;6.90;;;;;;;16.89;28.73;94112.78;5033236;28;20049;-41
2021/01/12 02:26:47;;;;;;;8.65;5.68;;;;;;;16.76;28.67;94105.19;5032611;28;20357;-42
2021/01/12 02:29:14;;;;;;;7.90;5.70;;;;;;;16.71;28.86;94100.16;5045492;28;20053;-41
2021/01/12 02:31:41;;;;;;;11.15;5.47;;;;;;;16.87;28.37;94106.28;5013521;28;20058;-42
2021/01/12 02:34:13;;;;;;;7.10;5.53;;;;;;;16.92;28.46;94116.66;5014082;28;20049;-43
2021/01/12 02:36:43;;;;;;;10.13;5.95;;;;;;;16.84;28.46;94093.75;5025433;28;20053;-42
2021/01/12 02:39:17;;;;;;;8.18;5.60;;;;;;;16.80;28.49;94098.16;5036647;28;20048;-41
2021/01/12 02:41:44;;;;;;;7.80;5.90;;;;;;;17.06;28.42;94103.84;5062497;28;20505;-43
2021/01/12 02:44:22;;;;;;;8.77;6.22;;;;;;;17.14;28.34;94099.53;5077045;28;20451;-41
2021/01/12 02:46:52;;;;;;;9.00;5.88;;;;;;;17.08;28.49;94088.44;5060699;28;20053;-42
2021/01/12 02:49:22;;;;;;;12.57;7.70;;;;;;;17.13;27.86;94082.91;5055596;28;20447;-42
2021/01/12 02:51:49;;;;;;;10.05;7.38;;;;;;;17.03;28.23;94091.31;5056405;28;20075;-41
2021/01/12 02:54:17;;;;;;;7.72;6.20;;;;;;;16.78;28.83;94095.09;5056204;28;20057;-42
2021/01/12 02:56:49;;;;;;;10.15;6.43;;;;;;;16.87;28.70;94085.16;5056143;28;20056;-41
2021/01/12 02:59:19;;;;;;;9.30;7.00;;;;;;;16.82;28.78;94095.94;5056288;28;20053;-41
2021/01/12 03:01:46;;;;;;;10.43;6.70;;;;;;;17.02;28.59;94089.78;5056121;28;20045;-41
2021/01/12 03:04:13;;;;;;;8.27;6.85;;;;;;;16.76;28.71;94087.50;5056284;28;20086;-42
2021/01/12 03:06:43;;;;;;;9.98;7.90;;;;;;;16.88;28.55;94095.38;5055989;28;20056;-42
2021/01/12 03:09:10;;;;;;;8.70;7.38;;;;;;;16.70;28.88;94093.34;5055919;28;20053;-41
2021/01/12 03:11:37;;;;;;;10.00;6.95;;;;;;;17.00;28.32;94089.34;5066859;28;20044;-42
2021/01/12 03:14:04;;;;;;;10.73;7.07;;;;;;;16.74;28.92;94083.66;5075385;28;20056;-42
2021/01/12 03:16:35;;;;;;;8.00;6.70;;;;;;;16.92;28.68;94087.59;5063048;28;20049;-42
2021/01/12 03:19:03;;;;;;;8.07;6.38;;;;;;;16.81;28.77;94083.84;5056132;28;20060;-42
2021/01/12 03:21:32;;;;;;;8.43;6.15;;;;;;;16.79;28.92;94080.78;5055864;28;20053;-41
2021/01/12 03:23:59;;;;;;;6.93;6.20;;;;;;;16.90;28.68;94081.84;5056005;28;20563;-43
2021/01/12 03:26:29;;;;;;;7.20;5.60;;;;;;;17.16;27.99;94078.84;5055604;28;20036;-41
2021/01/12 03:29:04;;;;;;;7.85;5.88;;;;;;;16.86;28.75;94079.13;5055661;28;20049;-41
2021/01/12 03:31:31;;;;;;;8.50;7.28;;;;;;;16.75;28.89;94074.63;5055635;28;20045;-41
2021/01/12 03:34:01;;;;;;;9.90;7.63;;;;;;;16.88;28.39;94076.91;5055422;28;20060;-41
2021/01/12 03:36:34;;;;;;;9.02;6.35;;;;;;;16.60;29.06;94079.44;5054375;28;20041;-41
2021/01/12 03:39:01;;;;;;;7.05;5.82;;;;;;;16.87;28.50;94071.97;5055686;28;20380;-42
2021/01/12 03:41:29;;;;;;;6.80;5.07;;;;;;;16.73;28.60;94066.28;5065036;28;20056;-42
2021/01/12 03:43:56;;;;;;;7.53;5.53;;;;;;;16.67;28.54;94064.97;5075794;28;20060;-42
2021/01/12 03:46:23;;;;;;;5.43;4.90;;;;;;;16.82;28.58;94069.56;5064560;28;20052;-41
2021/01/12 03:48:53;;;;;;;7.55;5.68;;;;;;;16.63;28.66;94060.28;5055585;28;20063;-42
2021/01/12 03:51:23;;;;;;;9.80;6.53;;;;;;;16.69;28.73;94054.84;5053600;28;20053;-42
2021/01/12 03:53:51;;;;;;;10.65;6.38;;;;;;;16.61;28.81;94057.22;5055274;28;20124;-41
2021/01/12 03:56:20;;;;;;;10.32;7.22;;;;;;;16.76;28.79;94060.31;5054885;28;20049;-42
2021/01/12 03:58:50;;;;;;;9.88;7.30;;;;;;;16.54;29.08;94057.00;5046160;28;20341;-43
2021/01/12 04:01:20;;;;;;;7.38;6.10;;;;;;;16.48;29.09;94037.22;5054774;28;20056;-42
2021/01/12 04:03:47;;;;;;;9.20;6.45;;;;;;;16.65;28.73;94052.03;5055195;28;20056;-42
2021/01/12 04:06:19;;;;;;;6.40;4.75;;;;;;;16.53;28.83;94047.56;5055042;28;20057;-41
2021/01/12 04:08:47;;;;;;;7.75;4.93;;;;;;;16.72;28.84;94043.63;5055152;28;20809;-42
2021/01/12 04:11:17;;;;;;;6.28;5.00;;;;;;;16.67;28.76;94047.25;5062595;28;20057;-43
2021/01/12 04:13:48;;;;;;;6.90;5.20;;;;;;;16.76;28.65;94031.28;5074708;28;20048;-42
2021/01/12 04:16:15;;;;;;;5.63;4.22;;;;;;;16.76;28.60;94024.16;5074895;28;20052;-42
2021/01/12 04:18:42;;;;;;;4.82;4.32;;;;;;;16.73;28.83;94010.84;5074501;28;20052;-42
2021/01/12 04:21:09;;;;;;;7.15;4.68;;;;;;;16.72;28.46;94006.66;5056648;28;20049;-42
2021/01/12 04:23:36;;;;;;;6.03;4.60;;;;;;;16.88;28.49;94013.56;5054542;28;20057;-42
2021/01/12 04:26:06;;;;;;;6.85;4.38;;;;;;;16.90;28.42;94029.06;5053814;28;20048;-41
2021/01/12 04:28:36;;;;;;;7.22;4.25;;;;;;;16.98;28.21;94036.09;5050411;28;20049;-41
2021/01/12 04:31:04;;;;;;;5.97;4.43;;;;;;;16.74;28.53;94026.34;5050212;28;20056;-41
2021/01/12 04:33:32;;;;;;;5.65;3.88;;;;;;;16.70;28.45;94008.88;5054067;28;20479;-42
2021/01/12 04:35:59;;;;;;;6.35;4.10;;;;;;;16.86;27.97;94010.47;5054377;28;20053;-42
2021/01/12 04:38:26;;;;;;;5.70;3.78;;;;;;;16.90;28.10;94005.28;5054187;28;20056;-42
2021/01/12 04:40:54;;;;;;;6.28;4.03;;;;;;;16.78;28.13;94015.88;5058837;28;20455;-42
2021/01/12 04:43:21;;;;;;;5.00;4.05;;;;;;;16.93;27.96;94033.69;5074571;28;20075;-42
2021/01/12 04:45:50;;;;;;;5.43;4.43;;;;;;;16.89;28.14;94033.56;5074438;28;20075;-41
2021/01/12 04:48:20;;;;;;;5.85;4.32;;;;;;;16.78;28.18;94031.72;5074081;28;20447;-41
2021/01/12 04:50:47;;;;;;;3.95;3.55;;;;;;;17.09;27.86;94063.56;5060081;28;20065;-41
2021/01/12 04:53:14;;;;;;;4.55;3.92;;;;;;;16.64;28.23;94039.94;5054257;28;20064;-41
2021/01/12 04:55:43;;;;;;;4.18;3.08;;;;;;;16.78;28.17;94015.88;5053372;28;20048;-41
2021/01/12 04:58:10;;;;;;;4.97;4.00;;;;;;;16.68;28.04;94037.47;5052817;28;20048;-42
2021/01/12 05:00:39;;;;;;;4.88;4.00;;;;;;;16.74;28.18;94041.41;5053632;28;20059;-40
2021/01/12 05:03:09;;;;;;;4.47;3.72;;;;;;;16.89;27.89;94022.25;5048627;28;20076;-41
2021/01/12 05:05:40;;;;;;;5.60;4.22;;;;;;;16.57;28.23;94006.22;5033973;28;20052;-42
2021/01/12 05:08:17;;;;;;;4.30;3.50;;;;;;;16.89;27.78;94043.34;5033826;28;20052;-42
2021/01/12 05:10:50;;;;;;;5.38;3.97;;;;;;;16.73;27.95;94045.94;5055177;28;20064;-42
2021/01/12 05:13:20;;;;;;;3.78;3.38;;;;;;;16.69;28.16;94033.72;5073935;28;20418;-41
2021/01/12 05:15:53;;;;;;;4.80;3.60;;;;;;;17.04;27.52;94028.72;5035841;28;20344;-43
2021/01/12 05:18:20;;;;;;;4.85;4.05;;;;;;;17.04;27.41;94023.44;5032323;28;20056;-42
2021/01/12 05:20:52;;;;;;;4.63;3.47;;;;;;;16.38;28.49;93995.44;5032527;28;20045;-42
2021/01/12 05:23:24;;;;;;;4.15;3.50;;;;;;;15.89;29.48;93997.31;5032630;28;20060;-42
2021/01/12 05:25:53;;;;;;;5.43;4.05;;;;;;;15.66;29.78;93994.31;5034042;28;20053;-43
2021/01/12 05:28:20;;;;;;;4.60;3.70;;;;;;;15.55;30.06;93998.41;5033746;28;20057;-42
2021/01/12 05:30:48;;;;;;;5.40;4.00;;;;;;;15.51;30.08;93981.72;5050868;28;20061;-43
2021/01/12 05:33:19;;;;;;;3.97;3.42;;;;;;;15.48;30.07;93985.00;5038371;28;20460;-43
2021/01/12 05:35:48;;;;;;;6.13;4.15;;;;;;;15.43;29.99;93986.75;5033375;28;20084;-43
2021/01/12 05:38:28;;;;;;;6.35;4.10;;;;;;;15.37;30.38;94003.88;5033796;28;20079;-42
2021/01/12 05:40:57;;;;;;;6.22;4.30;;;;;;;15.46;30.18;94006.41;5057088;28;20059;-43
2021/01/12 05:43:35;;;;;;;6.22;4.93;;;;;;;16.11;29.18;94014.56;5048546;28;20049;-43
2021/01/12 05:46:23;;;;;;;6.88;4.88;;;;;;;15.83;29.73;94004.66;5032391;28;20057;-42
2021/01/12 05:48:50;;;;;;;6.45;5.10;;;;;;;16.24;29.01;94008.22;5034182;28;20079;-42
2021/01/12 05:51:18;;;;;;;5.72;4.20;;;;;;;16.15;29.04;94010.19;5053399;28;20056;-43
2021/01/12 05:53:57;;;;;;;5.03;3.90;;;;;;;16.29;28.88;94021.16;5046461;28;20049;-43
2021/01/12 05:56:31;;;;;;;5.47;3.97;;;;;;;16.13;29.06;94009.72;5032731;28;20061;-43
2021/01/12 05:59:02;;;;;;;5.40;4.55;;;;;;;16.18;28.96;94009.53;5034985;28;20056;-43
2021/01/12 06:01:50;;;;;;;7.05;5.43;;;;;;;16.24;29.13;93990.53;5053071;28;20494;-42
2021/01/12 06:04:17;;;;;;;6.78;4.82;;;;;;;16.30;28.92;93993.69;5043573;28;20068;-43
2021/01/12 06:06:50;;;;;;;7.35;5.15;;;;;;;16.21;29.25;93988.53;5032752;28;20053;-42
2021/01/12 06:09:18;;;;;;;8.73;6.07;;;;;;;16.09;29.23;93987.75;5038997;28;20049;-43
2021/01/12 06:11:47;;;;;;;8.15;5.20;;;;;;;16.41;28.75;94002.72;5069474;28;20052;-44
2021/01/12 06:14:20;;;;;;;9.05;6.13;;;;;;;16.45;28.74;94003.59;5077189;28;20059;-42
2021/01/12 06:16:48;;;;;;;10.90;6.55;;;;;;;16.57;28.46;94003.56;5060056;28;20061;-43
2021/01/12 06:19:19;;;;;;;14.70;7.85;;;;;;;16.42;28.96;93990.31;5038895;28;20041;-43
2021/01/12 06:22:04;;;;;;;11.05;7.60;;;;;;;16.09;29.28;93982.47;5057189;28;20056;-43
2021/01/12 06:24:38;;;;;;;8.75;6.15;;;;;;;16.37;28.83;93985.22;5056066;28;20048;-43
2021/01/12 06:27:12;;;;;;;11.25;6.85;;;;;;;16.17;29.03;93997.44;5057140;28;20510;-42
2021/01/12 06:29:40;;;;;;;11.52;7.07;;;;;;;16.16;29.07;93969.53;5046505;28;20067;-43
2021/01/12 06:32:30;;;;;;;7.25;6.00;;;;;;;15.97;29.47;93956.91;5056673;28;20060;-42
2021/01/12 06:35:04;;;;;;;7.30;6.07;;;;;;;16.04;29.30;93965.78;5056869;28;20076;-43
2021/01/12 06:37:36;;;;;;;6.80;6.03;;;;;;;16.21;29.18;93956.13;5056841;28;20052;-43
2021/01/12 06:40:13;;;;;;;6.72;5.47;;;;;;;16.14;29.13;93964.59;5056208;28;20391;-43
2021/01/12 06:42:40;;;;;;;6.43;5.25;;;;;;;16.30;29.06;93968.09;5036659;28;20064;-42
2021/01/12 06:45:09;;;;;;;6.50;5.07;;;;;;;16.52;28.79;93979.28;5036542;28;20084;-43
2021/01/12 06:47:38;;;;;;;6.88;4.50;;;;;;;16.26;28.96;93977.00;5036527;28;20060;-43
2021/01/12 06:50:12;;;;;;;6.60;4.43;;;;;;;16.15;28.94;93968.78;5045292;28;20045;-43
2021/01/12 06:52:44;;;;;;;5.63;4.75;;;;;;;16.19;29.22;93969.66;5056493;28;20068;-43
2021/01/12 06:55:20;;;;;;;6.43;4.72;;;;;;;16.26;29.01;93958.53;5056272;28;20501;-43
2021/01/12 06:57:49;;;;;;;5.72;4.68;;;;;;;16.18;28.96;93962.84;5056381;28;20557;-43
2021/01/12 07:00:21;;;;;;;5.35;4.35;;;;;;;16.20;29.17;93986.25;5055930;28;20055;-42
2021/01/12 07:02:58;;;;;;;5.68;4.53;;;;;;;16.03;29.31;93993.25;5056451;28;20056;-43
2021/01/12 07:05:34;;;;;;;5.30;4.40;;;;;;;16.12;29.11;93976.56;5056324;28;20049;-42
2021/01/12 07:08:07;;;;;;;5.05;4.13;;;;;;;16.18;29.16;93983.16;5056278;28;20450;-43
2021/01/12 07:10:41;;;;;;;4.63;3.92;;;;;;;16.11;28.86;93977.66;5058655;28;20064;-43
2021/01/12 07:13:08;;;;;;;4.78;3.67;;;;;;;16.13;29.13;93962.25;5057816;28;20055;-44
2021/01/12 07:15:48;;;;;;;4.32;3.90;;;;;;;16.16;29.01;93986.13;5075902;28;20040;-43
2021/01/12 07:18:22;;;;;;;4.85;3.80;;;;;;;15.74;29.72;93980.25;5075825;28;20060;-43
2021/01/12 07:20:50;;;;;;;4.07;3.50;;;;;;;15.75;29.37;93981.81;5060795;28;20365;-43
2021/01/12 07:23:20;;;;;;;4.32;3.13;;;;;;;16.08;29.06;93988.84;5054654;28;20057;-43
2021/01/12 07:25:53;;;;;;;4.95;3.65;;;;;;;15.92;29.23;93971.06;5054818;28;20044;-43
2021/01/12 07:28:24;;;;;;;4.40;3.92;;;;;;;15.76;29.46;93975.44;5054971;28;20049;-42
2021/01/12 07:30:55;;;;;;;5.70;4.25;;;;;;;15.89;29.44;93982.28;5055162;28;20391;-44
2021/01/12 07:33:30;;;;;;;4.95;4.28;;;;;;;15.91;29.43;93972.16;5055549;28;20048;-42
2021/01/12 07:35:58;;;;;;;9.20;7.38;;;;;;;15.97;29.14;93989.31;5055108;28;20056;-43
2021/01/12 07:38:28;;;;;;;7.90;6.60;;;;;;;16.06;29.26;93991.81;5055654;28;20056;-43
2021/01/12 07:41:04;;;;;;;7.28;6.32;;;;;;;15.95;29.33;93986.22;5060587;28;20502;-43
2021/01/12 07:43:32;;;;;;;5.88;5.05;;;;;;;16.09;29.00;93993.78;5075668;28;20078;-43
2021/01/12 07:46:02;;;;;;;5.35;4.60;;;;;;;16.02;29.16;93986.44;5075418;28;20048;-43
2021/01/12 07:48:29;;;;;;;6.43;5.35;;;;;;;15.76;29.70;93988.59;5055780;28;20048;-43
2021/01/12 07:51:01;;;;;;;7.90;7.10;;;;;;;15.96;29.23;93981.72;5054107;28;20057;-43
2021/01/12 07:53:31;;;;;;;9.13;7.70;;;;;;;16.16;29.11;93980.09;5055409;28;20064;-44
2021/01/12 07:56:00;;;;;;;11.77;8.60;;;;;;;15.86;29.40;93961.81;5055195;28;20060;-43
2021/01/12 07:58:28;;;;;;;9.30;8.13;;;;;;;16.13;29.33;93975.44;5054245;28;20044;-43
2021/01/12 08:00:59;;;;;;;7.28;6.55;;;;;;;16.00;29.26;93974.69;5053222;28;20044;-43
2021/01/12 08:03:27;;;;;;;7.85;7.00;;;;;;;15.96;29.37;93966.66;5055094;28;20053;-43
2021/01/12 08:06:01;;;;;;;6.00;5.38;;;;;;;16.08;29.17;93980.94;5054244;28;20470;-43
2021/01/12 08:08:28;;;;;;;5.30;4.70;;;;;;;15.92;29.52;93976.34;5055157;28;20470;-43
2021/01/12 08:10:58;;;;;;;5.88;4.95;;;;;;;16.24;29.03;93971.28;5059995;28;20048;-42
2021/01/12 08:13:28;;;;;;;5.55;4.50;;;;;;;15.91;29.48;93980.06;5075113;28;20494;-42
2021/01/12 08:15:58;;;;;;;6.28;4.00;;;;;;;15.99;28.90;93971.28;5066128;28;20406;-43
2021/01/12 08:18:25;;;;;;;4.97;4.15;;;;;;;16.09;29.17;93966.66;5054493;28;20041;-43
2021/01/12 08:20:56;;;;;;;6.57;4.72;;;;;;;15.95;29.36;93959.88;5052887;28;20076;-43
2021/01/12 08:23:23;;;;;;;6.38;4.43;;;;;;;15.98;29.13;93964.47;5054120;28;20092;-43
2021/01/12 08:25:50;;;;;;;6.72;5.20;;;;;;;16.19;28.81;93947.78;5054845;28;20064;-42
2021/01/12 08:28:27;;;;;;;7.50;4.90;;;;;;;16.20;29.18;93944.03;5054402;28;20044;-42
2021/01/12 08:30:54;;;;;;;6.40;5.13;;;;;;;16.07;29.36;93940.63;5053807;28;20067;-43
2021/01/12 08:33:28;;;;;;;6.32;4.82;;;;;;;16.03;29.26;93929.97;5054596;28;20455;-42
2021/01/12 08:36:10;;;;;;;6.93;4.40;;;;;;;16.09;29.00;93932.38;5053295;28;20060;-43
2021/01/12 08:38:42;;;;;;;5.90;4.70;;;;;;;16.00;29.32;93940.41;5054109;28;20045;-43
2021/01/12 08:41:10;;;;;;;6.40;4.60;;;;;;;15.84;29.65;93940.28;5060474;28;20060;-42
2021/01/12 08:43:40;;;;;;;5.22;4.10;;;;;;;15.48;30.08;93945.50;5057020;28;20540;-42
2021/01/12 08:46:07;;;;;;;5.55;4.20;;;;;;;15.49;30.09;93931.22;5056416;28;20051;-42
2021/01/12 08:48:34;;;;;;;7.03;4.60;;;;;;;15.66;29.90;93923.16;5057187;28;20056;-43
2021/01/12 08:51:13;;;;;;;8.68;7.45;;;;;;;15.65;30.13;93927.66;5034120;28;20064;-42
2021/01/12 08:53:41;;;;;;;9.32;7.85;;;;;;;15.62;29.93;93919.66;5034524;28;20053;-42
2021/01/12 08:56:09;;;;;;;12.30;6.82;;;;;;;15.53;30.37;93921.56;5033488;28;20068;-42
2021/01/12 08:58:39;;;;;;;7.63;5.60;;;;;;;15.51;30.16;93914.00;5050933;28;20060;-42
2021/01/12 09:01:06;;;;;;;7.25;5.80;;;;;;;15.15;31.00;93914.69;5053859;28;20049;-42
2021/01/12 09:03:41;;;;;;;7.93;5.68;;;;;;;14.92;31.01;93908.25;5053974;28;20068;-43
2021/01/12 09:06:22;;;;;;;9.43;7.72;;;;;;;14.89;31.34;93909.69;5053757;28;20052;-44
2021/01/12 09:08:52;;;;;;;10.68;8.15;;;;;;;15.10;31.03;93901.75;5053923;28;20057;-42
2021/01/12 09:11:23;;;;;;;9.32;7.25;;;;;;;15.14;30.71;93900.00;5062546;28;20059;-43
2021/01/12 09:13:50;;;;;;;13.95;8.68;;;;;;;14.96;31.21;93891.50;5056446;28;20059;-43
2021/01/12 09:16:24;;;;;;;12.52;10.25;;;;;;;14.39;32.13;93891.31;5056548;28;20059;-43
2021/01/12 09:18:51;;;;;;;15.82;10.60;;;;;;;14.44;32.12;93893.78;5037904;28;20057;-42
2021/01/12 09:21:23;;;;;;;15.45;10.00;;;;;;;14.70;31.65;93889.09;5053319;28;20116;-43
2021/01/12 09:23:51;;;;;;;9.77;7.32;;;;;;;14.76;31.20;93881.75;5053904;28;20044;-44
2021/01/12 09:26:24;;;;;;;8.18;6.22;;;;;;;15.08;30.79;93869.69;5052757;28;20068;-43
2021/01/12 09:28:51;;;;;;;9.88;5.63;;;;;;;14.94;30.84;93877.13;5053665;28;20053;-43
2021/01/12 09:31:21;;;;;;;7.90;5.15;;;;;;;15.20;30.65;93872.34;5052433;28;20071;-43
2021/01/12 09:33:55;;;;;;;8.20;5.45;;;;;;;15.21;30.60;93865.22;5035549;28;20450;-43
2021/01/12 09:36:30;;;;;;;8.45;6.28;;;;;;;15.16;30.59;93866.22;5033990;28;20329;-43
2021/01/12 09:38:57;;;;;;;8.15;6.38;;;;;;;15.04;30.62;93847.75;5051657;28;20068;-43
2021/01/12 09:41:26;;;;;;;9.38;6.70;;;;;;;15.18;30.62;93853.47;5062902;28;20060;-43
2021/01/12 09:43:54;;;;;;;8.77;6.40;;;;;;;15.06;30.81;93850.81;5075785;28;20056;-44
2021/01/12 09:46:22;;;;;;;6.95;5.32;;;;;;;15.25;30.44;93856.34;5077551;28;20052;-42
2021/01/12 09:48:49;;;;;;;7.20;5.55;;;;;;;15.23;30.45;93855.91;5060578;28;20052;-43
2021/01/12 09:51:17;;;;;;;8.38;4.45;;;;;;;15.14;30.54;93842.06;5057455;28;20049;-43
2021/01/12 09:53:51;;;;;;;6.05;3.70;;;;;;;15.11;30.60;93832.19;5057761;28;20064;-43
2021/01/12 09:56:20;;;;;;;5.60;3.38;;;;;;;15.19;30.49;93831.31;5057651;28;20053;-43
2021/01/12 09:58:50;;;;;;;5.03;3.80;;;;;;;15.26;30.46;93822.88;5057432;28;20136;-42
2021/01/12 10:01:21;;;;;;;4.38;3.90;;;;;;;15.27;30.27;93819.91;5057329;28;20040;-42
2021/01/12 10:03:48;;;;;;;6.30;4.57;;;;;;;15.44;30.16;93811.03;5057468;28;20061;-42
2021/01/12 10:06:22;;;;;;;5.88;4.80;;;;;;;15.35;30.30;93795.38;5057328;28;20063;-44
2021/01/12 10:08:49;;;;;;;6.13;4.57;;;;;;;15.55;30.13;93787.66;5056921;28;20053;-43
2021/01/12 10:11:17;;;;;;;5.40;4.38;;;;;;;15.42;30.26;93782.41;5064389;28;20048;-43
2021/01/12 10:13:47;;;;;;;5.20;4.38;;;;;;;15.58;30.04;93776.44;5077214;28;20052;-43
2021/01/12 10:16:25;;;;;;;5.55;3.92;;;;;;;15.22;30.63;93778.00;5077222;28;20045;-44
2021/01/12 10:18:52;;;;;;;6.85;4.10;;;;;;;15.47;30.25;93791.19;5060386;28;20075;-43
2021/01/12 10:21:20;;;;;;;4.75;3.60;;;;;;;15.04;30.81;93785.34;5057032;28;20049;-42
2021/01/12 10:23:48;;;;;;;5.13;3.78;;;;;;;15.39;30.11;93790.97;5057018;28;20049;-43
2021/01/12 10:26:18;;;;;;;5.50;3.60;;;;;;;15.37;30.37;93793.16;5056882;28;20053;-43
2021/01/12 10:28:47;;;;;;;3.40;2.80;;;;;;;15.37;30.31;93782.63;5056579;28;20049;-42
2021/01/12 10:31:16;;;;;;;4.95;2.90;;;;;;;15.28;30.53;93774.06;5070378;28;20048;-44
2021/01/12 10:33:46;;;;;;;4.68;3.20;;;;;;;15.27;30.75;93767.25;5036730;28;20049;-48
2021/01/12 10:36:15;;;;;;;4.97;3.60;;;;;;;15.47;30.51;93770.88;5057399;28;20067;-45
2021/01/12 10:38:43;;;;;;;7.38;2.95;;;;;;;15.56;30.47;93754.94;5061982;28;20120;-44
2021/01/12 10:41:10;;;;;;;5.30;2.88;;;;;;;15.57;30.52;93754.59;5063552;28;20052;-48
2021/01/12 10:43:37;;;;;;;3.45;2.88;;;;;;;15.83;29.94;93743.72;5057070;28;20076;-42
2021/01/12 10:46:04;;;;;;;3.35;2.58;;;;;;;16.03;29.68;93760.47;5036358;28;20060;-43
2021/01/12 10:48:32;;;;;;;2.50;2.03;;;;;;;16.02;29.44;93759.72;5048974;28;20068;-45
2021/01/12 10:51:02;;;;;;;4.85;2.40;;;;;;;15.90;29.79;93759.00;5064117;28;20127;-44
2021/01/12 10:53:29;;;;;;;2.92;2.17;;;;;;;16.10;29.45;93759.91;5064701;28;20056;-46
2021/01/12 10:56:01;;;;;;;3.17;2.25;;;;;;;16.08;29.40;93754.97;5055897;28;20059;-45
2021/01/12 10:58:29;;;;;;;77.40;47.28;;;;;;;16.34;29.41;93754.53;5056048;28;20049;-43
2021/01/12 11:00:57;;;;;;;15.15;8.98;;;;;;;16.09;29.35;93774.19;5056161;28;20064;-45
2021/01/12 11:03:27;;;;;;;3.47;2.70;;;;;;;16.23;29.16;93766.69;5056087;28;20087;-44
2021/01/12 11:05:55;;;;;;;3.75;3.03;;;;;;;16.03;29.46;93748.06;5056287;28;20076;-45
2021/01/12 11:08:22;;;;;;;4.07;2.75;;;;;;;15.86;29.58;93742.28;5055997;28;20049;-44
2021/01/12 11:10:50;;;;;;;4.47;2.80;;;;;;;15.69;29.79;93738.81;5054704;28;20064;-43
2021/01/12 11:13:18;;;;;;;5.00;3.60;;;;;;;15.40;29.96;93745.09;5062455;28;20065;-44
2021/01/12 11:15:51;;;;;;;5.05;3.70;;;;;;;15.55;30.07;93732.34;5043716;28;20049;-43
2021/01/12 11:18:18;;;;;;;5.13;4.00;;;;;;;15.41;30.23;93719.53;5055812;28;20052;-43
2021/01/12 11:20:47;;;;;;;5.70;3.83;;;;;;;15.54;30.39;93718.41;5054426;28;20359;-48
2021/01/12 11:23:14;;;;;;;5.25;3.90;;;;;;;15.56;29.90;93715.44;5055192;28;20049;-43
2021/01/12 11:25:41;;;;;;;4.53;3.58;;;;;;;15.44;30.25;93703.06;5056034;28;20090;-44
2021/01/12 11:28:11;;;;;;;6.30;4.07;;;;;;;15.37;30.12;93700.22;5054240;28;20052;-43
2021/01/12 11:30:38;;;;;;;6.90;4.35;;;;;;;15.29;30.29;93711.63;5055375;28;20518;-45
2021/01/12 11:33:10;;;;;;;7.07;4.32;;;;;;;15.37;30.12;93718.66;5054206;28;20451;-46
2021/01/12 11:35:37;;;;;;;7.28;4.03;;;;;;;15.41;29.99;93712.38;5055808;28;20049;-44
2021/01/12 11:38:08;;;;;;;4.13;3.35;;;;;;;15.17;30.24;93699.25;5054146;28;20049;-50
2021/01/12 11:40:35;;;;;;;5.40;3.88;;;;;;;15.33;30.26;93708.00;5056719;28;20387;-46
2021/01/12 11:43:05;;;;;;;4.15;3.63;;;;;;;15.12;30.59;93712.63;5060664;28;20064;-46
2021/01/12 11:45:34;;;;;;;5.13;4.30;;;;;;;15.21;30.30;93694.84;5049583;28;20051;-44